sensor_id;sensor_type;location;lat;lon;timestamp;P1;durP1;ratioP1;P2;durP2;ratioP2
52692;SDS011;68218;51.012;-1.648;2023-06-19T00:00:42;19.25;;;17.55;;
52692;SDS011;68218;51.012;-1.648;2023-06-19T00:03:07;20.88;;;18.83;;
52692;SDS011;68218;51.012;-1.648;2023-06-19T00:05:32;19.10;;;17.38;;
52692;SDS011;68218;51.012;-1.648;2023-06-19T00:07:58;19.15;;;17.52;;
52692;SDS011;68218;51.012;-1.648;2023-06-19T00:10:24;20.38;;;18.45;;
52692;SDS011;68218;51.012;-1.648;2023-06-19T00:12:49;20.13;;;18.30;;
52692;SDS011;68218;51.012;-1.648;2023-06-19T00:15:15;21.23;;;19.08;;
52692;SDS011;68218;51.012;-1.648;2023-06-19T00:17:40;20.65;;;18.52;;
52692;SDS011;68218;51.012;-1.648;2023-06-19T00:20:06;19.92;;;18.00;;
52692;SDS011;68218;51.012;-1.648;2023-06-19T00:22:32;20.58;;;17.85;;
52692;SDS011;68218;51.012;-1.648;2023-06-19T00:24:58;19.60;;;17.67;;
52692;SDS011;68218;51.012;-1.648;2023-06-19T00:27:23;19.77;;;17.67;;
52692;SDS011;68218;51.012;-1.648;2023-06-19T00:29:50;21.70;;;18.55;;
52692;SDS011;68218;51.012;-1.648;2023-06-19T00:32:16;22.15;;;19.80;;
52692;SDS011;68218;51.012;-1.648;2023-06-19T00:34:41;19.98;;;17.73;;
52692;SDS011;68218;51.012;-1.648;2023-06-19T00:37:08;21.55;;;19.55;;
52692;SDS011;68218;51.012;-1.648;2023-06-19T00:39:34;20.35;;;18.33;;
52692;SDS011;68218;51.012;-1.648;2023-06-19T00:42:00;21.33;;;19.15;;
52692;SDS011;68218;51.012;-1.648;2023-06-19T00:44:26;20.05;;;18.10;;
52692;SDS011;68218;51.012;-1.648;2023-06-19T00:46:55;20.67;;;18.48;;
52692;SDS011;68218;51.012;-1.648;2023-06-19T00:49:23;23.60;;;20.05;;
52692;SDS011;68218;51.012;-1.648;2023-06-19T00:51:51;20.15;;;18.23;;
52692;SDS011;68218;51.012;-1.648;2023-06-19T00:54:17;19.30;;;17.60;;
52692;SDS011;68218;51.012;-1.648;2023-06-19T00:56:43;20.60;;;18.80;;
52692;SDS011;68218;51.012;-1.648;2023-06-19T00:59:16;21.40;;;19.20;;
52692;SDS011;68218;51.012;-1.648;2023-06-19T01:01:44;20.50;;;18.60;;
52692;SDS011;68218;51.012;-1.648;2023-06-19T01:04:10;21.27;;;18.33;;
52692;SDS011;68218;51.012;-1.648;2023-06-19T01:06:41;20.17;;;18.25;;
52692;SDS011;68218;51.012;-1.648;2023-06-19T01:09:15;23.65;;;19.02;;
52692;SDS011;68218;51.012;-1.648;2023-06-19T01:11:44;20.67;;;18.15;;
52692;SDS011;68218;51.012;-1.648;2023-06-19T01:14:18;20.42;;;18.60;;
52692;SDS011;68218;51.012;-1.648;2023-06-19T01:16:46;20.45;;;17.92;;
52692;SDS011;68218;51.012;-1.648;2023-06-19T01:19:15;21.00;;;18.08;;
52692;SDS011;68218;51.012;-1.648;2023-06-19T01:21:44;21.15;;;18.98;;
52692;SDS011;68218;51.012;-1.648;2023-06-19T01:24:10;20.67;;;18.63;;
52692;SDS011;68218;51.012;-1.648;2023-06-19T01:26:35;38.20;;;19.25;;
52692;SDS011;68218;51.012;-1.648;2023-06-19T01:29:01;23.90;;;18.42;;
52692;SDS011;68218;51.012;-1.648;2023-06-19T01:31:28;21.35;;;19.33;;
52692;SDS011;68218;51.012;-1.648;2023-06-19T01:33:58;20.67;;;18.83;;
52692;SDS011;68218;51.012;-1.648;2023-06-19T01:36:26;23.83;;;18.85;;
52692;SDS011;68218;51.012;-1.648;2023-06-19T01:38:53;19.40;;;17.73;;
52692;SDS011;68218;51.012;-1.648;2023-06-19T01:41:22;21.60;;;18.00;;
52692;SDS011;68218;51.012;-1.648;2023-06-19T01:43:49;18.73;;;17.05;;
52692;SDS011;68218;51.012;-1.648;2023-06-19T01:46:16;19.15;;;17.35;;
52692;SDS011;68218;51.012;-1.648;2023-06-19T01:48:41;19.38;;;17.05;;
52692;SDS011;68218;51.012;-1.648;2023-06-19T01:51:07;21.70;;;18.80;;
52692;SDS011;68218;51.012;-1.648;2023-06-19T01:53:32;21.48;;;17.33;;
52692;SDS011;68218;51.012;-1.648;2023-06-19T01:55:59;19.58;;;17.67;;
52692;SDS011;68218;51.012;-1.648;2023-06-19T01:58:25;18.73;;;16.92;;
52692;SDS011;68218;51.012;-1.648;2023-06-19T02:00:50;19.17;;;17.33;;
52692;SDS011;68218;51.012;-1.648;2023-06-19T02:03:15;18.67;;;17.05;;
52692;SDS011;68218;51.012;-1.648;2023-06-19T02:05:41;19.33;;;17.42;;
52692;SDS011;68218;51.012;-1.648;2023-06-19T02:08:07;20.90;;;18.80;;
52692;SDS011;68218;51.012;-1.648;2023-06-19T02:10:33;18.67;;;16.83;;
52692;SDS011;68218;51.012;-1.648;2023-06-19T02:12:58;19.42;;;17.58;;
52692;SDS011;68218;51.012;-1.648;2023-06-19T02:15:23;18.00;;;16.40;;
52692;SDS011;68218;51.012;-1.648;2023-06-19T02:17:49;20.23;;;18.23;;
52692;SDS011;68218;51.012;-1.648;2023-06-19T02:20:20;20.80;;;17.65;;
52692;SDS011;68218;51.012;-1.648;2023-06-19T02:22:52;18.55;;;16.75;;
52692;SDS011;68218;51.012;-1.648;2023-06-19T02:25:17;18.50;;;16.80;;
52692;SDS011;68218;51.012;-1.648;2023-06-19T02:27:43;18.90;;;16.65;;
52692;SDS011;68218;51.012;-1.648;2023-06-19T02:30:09;19.23;;;17.27;;
52692;SDS011;68218;51.012;-1.648;2023-06-19T02:32:35;18.40;;;16.70;;
52692;SDS011;68218;51.012;-1.648;2023-06-19T02:35:00;18.00;;;16.30;;
52692;SDS011;68218;51.012;-1.648;2023-06-19T02:37:25;18.08;;;16.33;;
52692;SDS011;68218;51.012;-1.648;2023-06-19T02:39:51;32.28;;;16.63;;
52692;SDS011;68218;51.012;-1.648;2023-06-19T02:42:16;18.40;;;17.00;;
52692;SDS011;68218;51.012;-1.648;2023-06-19T02:44:42;17.00;;;15.68;;
52692;SDS011;68218;51.012;-1.648;2023-06-19T02:47:10;18.00;;;16.42;;
52692;SDS011;68218;51.012;-1.648;2023-06-19T02:49:36;22.60;;;16.17;;
52692;SDS011;68218;51.012;-1.648;2023-06-19T02:52:01;18.42;;;16.80;;
52692;SDS011;68218;51.012;-1.648;2023-06-19T02:54:26;17.27;;;15.70;;
52692;SDS011;68218;51.012;-1.648;2023-06-19T02:56:52;16.55;;;15.15;;
52692;SDS011;68218;51.012;-1.648;2023-06-19T02:59:17;17.65;;;16.10;;
52692;SDS011;68218;51.012;-1.648;2023-06-19T03:01:42;17.35;;;15.75;;
52692;SDS011;68218;51.012;-1.648;2023-06-19T03:04:08;17.27;;;15.82;;
52692;SDS011;68218;51.012;-1.648;2023-06-19T03:06:33;19.83;;;16.33;;
52692;SDS011;68218;51.012;-1.648;2023-06-19T03:09:04;17.52;;;15.73;;
52692;SDS011;68218;51.012;-1.648;2023-06-19T03:11:30;17.55;;;15.95;;
52692;SDS011;68218;51.012;-1.648;2023-06-19T03:13:56;17.17;;;15.48;;
52692;SDS011;68218;51.012;-1.648;2023-06-19T03:16:21;18.00;;;15.98;;
52692;SDS011;68218;51.012;-1.648;2023-06-19T03:18:46;18.50;;;16.75;;
52692;SDS011;68218;51.012;-1.648;2023-06-19T03:21:12;19.15;;;17.10;;
52692;SDS011;68218;51.012;-1.648;2023-06-19T03:23:39;19.48;;;17.48;;
52692;SDS011;68218;51.012;-1.648;2023-06-19T03:26:06;17.10;;;15.45;;
52692;SDS011;68218;51.012;-1.648;2023-06-19T03:31:03;18.20;;;16.27;;
52692;SDS011;68218;51.012;-1.648;2023-06-19T03:33:28;18.30;;;16.65;;
52692;SDS011;68218;51.012;-1.648;2023-06-19T03:35:54;19.33;;;17.27;;
52692;SDS011;68218;51.012;-1.648;2023-06-19T03:38:20;19.30;;;17.05;;
52692;SDS011;68218;51.012;-1.648;2023-06-19T03:40:45;18.08;;;16.38;;
52692;SDS011;68218;51.012;-1.648;2023-06-19T03:43:11;18.00;;;16.50;;
52692;SDS011;68218;51.012;-1.648;2023-06-19T03:45:37;22.25;;;16.98;;
52692;SDS011;68218;51.012;-1.648;2023-06-19T03:48:02;17.85;;;16.13;;
52692;SDS011;68218;51.012;-1.648;2023-06-19T03:50:28;18.88;;;17.00;;
52692;SDS011;68218;51.012;-1.648;2023-06-19T03:52:53;17.63;;;15.30;;
52692;SDS011;68218;51.012;-1.648;2023-06-19T03:55:19;18.08;;;16.33;;
52692;SDS011;68218;51.012;-1.648;2023-06-19T03:57:44;18.58;;;16.50;;
52692;SDS011;68218;51.012;-1.648;2023-06-19T04:00:10;19.08;;;17.08;;
52692;SDS011;68218;51.012;-1.648;2023-06-19T04:02:38;18.20;;;16.48;;
52692;SDS011;68218;51.012;-1.648;2023-06-19T04:05:03;18.80;;;16.98;;
52692;SDS011;68218;51.012;-1.648;2023-06-19T04:07:29;18.75;;;16.67;;
52692;SDS011;68218;51.012;-1.648;2023-06-19T04:09:56;19.20;;;16.83;;
52692;SDS011;68218;51.012;-1.648;2023-06-19T04:12:22;18.65;;;16.73;;
52692;SDS011;68218;51.012;-1.648;2023-06-19T04:14:47;18.02;;;16.42;;
52692;SDS011;68218;51.012;-1.648;2023-06-19T04:17:13;19.35;;;17.40;;
52692;SDS011;68218;51.012;-1.648;2023-06-19T04:19:40;19.23;;;16.58;;
52692;SDS011;68218;51.012;-1.648;2023-06-19T04:22:06;18.80;;;16.98;;
52692;SDS011;68218;51.012;-1.648;2023-06-19T04:24:32;18.85;;;16.90;;
52692;SDS011;68218;51.012;-1.648;2023-06-19T04:26:57;18.20;;;16.60;;
52692;SDS011;68218;51.012;-1.648;2023-06-19T04:29:23;17.48;;;15.68;;
52692;SDS011;68218;51.012;-1.648;2023-06-19T04:31:48;18.73;;;16.95;;
52692;SDS011;68218;51.012;-1.648;2023-06-19T04:34:15;19.27;;;17.05;;
52692;SDS011;68218;51.012;-1.648;2023-06-19T04:36:41;18.08;;;16.42;;
52692;SDS011;68218;51.012;-1.648;2023-06-19T04:39:06;19.35;;;16.88;;
52692;SDS011;68218;51.012;-1.648;2023-06-19T04:41:32;17.92;;;16.27;;
52692;SDS011;68218;51.012;-1.648;2023-06-19T04:43:57;23.25;;;18.20;;
52692;SDS011;68218;51.012;-1.648;2023-06-19T04:46:23;18.17;;;16.35;;
52692;SDS011;68218;51.012;-1.648;2023-06-19T04:48:48;20.20;;;18.15;;
52692;SDS011;68218;51.012;-1.648;2023-06-19T04:51:17;18.00;;;16.33;;
52692;SDS011;68218;51.012;-1.648;2023-06-19T04:53:46;19.60;;;17.65;;
52692;SDS011;68218;51.012;-1.648;2023-06-19T04:56:12;18.83;;;17.00;;
52692;SDS011;68218;51.012;-1.648;2023-06-19T04:58:37;19.13;;;17.33;;
52692;SDS011;68218;51.012;-1.648;2023-06-19T05:01:10;19.58;;;17.60;;
52692;SDS011;68218;51.012;-1.648;2023-06-19T05:03:36;20.25;;;18.20;;
52692;SDS011;68218;51.012;-1.648;2023-06-19T05:06:01;19.60;;;17.77;;
52692;SDS011;68218;51.012;-1.648;2023-06-19T05:08:26;20.42;;;18.23;;
52692;SDS011;68218;51.012;-1.648;2023-06-19T05:10:52;17.77;;;16.17;;
52692;SDS011;68218;51.012;-1.648;2023-06-19T05:13:18;22.38;;;17.30;;
52692;SDS011;68218;51.012;-1.648;2023-06-19T05:15:44;18.88;;;17.10;;
52692;SDS011;68218;51.012;-1.648;2023-06-19T05:18:09;19.23;;;17.20;;
52692;SDS011;68218;51.012;-1.648;2023-06-19T05:20:34;18.13;;;16.55;;
52692;SDS011;68218;51.012;-1.648;2023-06-19T05:23:00;18.10;;;16.23;;
52692;SDS011;68218;51.012;-1.648;2023-06-19T05:25:25;18.60;;;16.77;;
52692;SDS011;68218;51.012;-1.648;2023-06-19T05:27:52;18.20;;;16.38;;
52692;SDS011;68218;51.012;-1.648;2023-06-19T05:30:18;19.35;;;17.30;;
52692;SDS011;68218;51.012;-1.648;2023-06-19T05:32:43;17.73;;;15.98;;
52692;SDS011;68218;51.012;-1.648;2023-06-19T05:35:08;19.00;;;16.67;;
52692;SDS011;68218;51.012;-1.648;2023-06-19T05:37:34;17.88;;;15.98;;
52692;SDS011;68218;51.012;-1.648;2023-06-19T05:39:59;17.42;;;15.65;;
52692;SDS011;68218;51.012;-1.648;2023-06-19T05:42:24;19.40;;;15.90;;
52692;SDS011;68218;51.012;-1.648;2023-06-19T05:44:50;16.80;;;15.00;;
52692;SDS011;68218;51.012;-1.648;2023-06-19T05:47:15;17.92;;;15.98;;
52692;SDS011;68218;51.012;-1.648;2023-06-19T05:49:42;17.63;;;15.85;;
52692;SDS011;68218;51.012;-1.648;2023-06-19T05:52:08;16.58;;;14.85;;
52692;SDS011;68218;51.012;-1.648;2023-06-19T05:54:33;16.45;;;14.88;;
52692;SDS011;68218;51.012;-1.648;2023-06-19T05:56:58;17.58;;;14.63;;
52692;SDS011;68218;51.012;-1.648;2023-06-19T05:59:24;15.70;;;14.40;;
52692;SDS011;68218;51.012;-1.648;2023-06-19T06:01:49;16.40;;;14.73;;
52692;SDS011;68218;51.012;-1.648;2023-06-19T06:04:15;14.52;;;13.23;;
52692;SDS011;68218;51.012;-1.648;2023-06-19T06:06:42;15.25;;;13.82;;
52692;SDS011;68218;51.012;-1.648;2023-06-19T06:09:07;15.32;;;13.90;;
52692;SDS011;68218;51.012;-1.648;2023-06-19T06:11:36;14.80;;;13.40;;
52692;SDS011;68218;51.012;-1.648;2023-06-19T06:14:01;16.38;;;14.65;;
52692;SDS011;68218;51.012;-1.648;2023-06-19T06:16:27;15.57;;;13.98;;
52692;SDS011;68218;51.012;-1.648;2023-06-19T06:18:52;16.73;;;15.20;;
52692;SDS011;68218;51.012;-1.648;2023-06-19T06:21:17;15.27;;;13.98;;
52692;SDS011;68218;51.012;-1.648;2023-06-19T06:23:43;15.60;;;14.25;;
52692;SDS011;68218;51.012;-1.648;2023-06-19T06:26:09;16.33;;;14.90;;
52692;SDS011;68218;51.012;-1.648;2023-06-19T06:28:35;14.77;;;13.55;;
52692;SDS011;68218;51.012;-1.648;2023-06-19T06:31:01;16.02;;;14.30;;
52692;SDS011;68218;51.012;-1.648;2023-06-19T06:33:26;16.45;;;15.05;;
52692;SDS011;68218;51.012;-1.648;2023-06-19T06:35:54;14.32;;;13.23;;
52692;SDS011;68218;51.012;-1.648;2023-06-19T06:38:20;15.65;;;14.27;;
52692;SDS011;68218;51.012;-1.648;2023-06-19T06:40:45;15.02;;;13.60;;
52692;SDS011;68218;51.012;-1.648;2023-06-19T06:43:11;15.90;;;14.50;;
52692;SDS011;68218;51.012;-1.648;2023-06-19T06:45:36;13.98;;;12.52;;
52692;SDS011;68218;51.012;-1.648;2023-06-19T06:48:04;13.98;;;12.68;;
52692;SDS011;68218;51.012;-1.648;2023-06-19T06:50:30;13.13;;;12.05;;
52692;SDS011;68218;51.012;-1.648;2023-06-19T06:52:57;13.18;;;11.93;;
52692;SDS011;68218;51.012;-1.648;2023-06-19T06:55:22;12.40;;;11.32;;
52692;SDS011;68218;51.012;-1.648;2023-06-19T06:57:48;16.05;;;13.00;;
52692;SDS011;68218;51.012;-1.648;2023-06-19T07:00:13;13.05;;;12.05;;
52692;SDS011;68218;51.012;-1.648;2023-06-19T07:02:39;13.75;;;12.48;;
52692;SDS011;68218;51.012;-1.648;2023-06-19T07:05:06;15.35;;;14.20;;
52692;SDS011;68218;51.012;-1.648;2023-06-19T07:07:33;13.93;;;12.68;;
52692;SDS011;68218;51.012;-1.648;2023-06-19T07:09:59;13.05;;;12.02;;
52692;SDS011;68218;51.012;-1.648;2023-06-19T07:12:24;12.43;;;11.30;;
52692;SDS011;68218;51.012;-1.648;2023-06-19T07:14:53;13.10;;;11.80;;
52692;SDS011;68218;51.012;-1.648;2023-06-19T07:17:18;13.40;;;12.30;;
52692;SDS011;68218;51.012;-1.648;2023-06-19T07:19:44;12.85;;;11.77;;
52692;SDS011;68218;51.012;-1.648;2023-06-19T07:22:09;14.82;;;12.48;;
52692;SDS011;68218;51.012;-1.648;2023-06-19T07:24:34;13.90;;;12.60;;
52692;SDS011;68218;51.012;-1.648;2023-06-19T07:27:00;12.43;;;11.50;;
52692;SDS011;68218;51.012;-1.648;2023-06-19T07:29:25;12.75;;;11.65;;
52692;SDS011;68218;51.012;-1.648;2023-06-19T07:31:51;13.30;;;12.15;;
52692;SDS011;68218;51.012;-1.648;2023-06-19T07:34:17;12.43;;;11.43;;
52692;SDS011;68218;51.012;-1.648;2023-06-19T07:36:43;12.63;;;11.63;;
52692;SDS011;68218;51.012;-1.648;2023-06-19T07:39:08;13.63;;;12.45;;
52692;SDS011;68218;51.012;-1.648;2023-06-19T07:41:34;12.88;;;11.95;;
52692;SDS011;68218;51.012;-1.648;2023-06-19T07:44:00;13.07;;;12.07;;
52692;SDS011;68218;51.012;-1.648;2023-06-19T07:46:25;12.50;;;11.38;;
52692;SDS011;68218;51.012;-1.648;2023-06-19T07:48:51;18.17;;;16.58;;
52692;SDS011;68218;51.012;-1.648;2023-06-19T07:51:16;18.27;;;16.75;;
52692;SDS011;68218;51.012;-1.648;2023-06-19T07:53:41;18.13;;;16.70;;
52692;SDS011;68218;51.012;-1.648;2023-06-19T07:56:08;12.52;;;11.43;;
52692;SDS011;68218;51.012;-1.648;2023-06-19T07:58:34;16.67;;;15.35;;
52692;SDS011;68218;51.012;-1.648;2023-06-19T08:00:59;12.60;;;11.60;;
52692;SDS011;68218;51.012;-1.648;2023-06-19T08:03:25;12.85;;;11.80;;
52692;SDS011;68218;51.012;-1.648;2023-06-19T08:05:51;13.02;;;11.80;;
52692;SDS011;68218;51.012;-1.648;2023-06-19T08:08:16;12.20;;;11.20;;
52692;SDS011;68218;51.012;-1.648;2023-06-19T08:10:41;16.98;;;15.68;;
52692;SDS011;68218;51.012;-1.648;2023-06-19T08:13:07;16.85;;;15.65;;
52692;SDS011;68218;51.012;-1.648;2023-06-19T08:15:32;12.32;;;11.32;;
52692;SDS011;68218;51.012;-1.648;2023-06-19T08:17:58;12.93;;;11.88;;
52692;SDS011;68218;51.012;-1.648;2023-06-19T08:20:23;13.88;;;12.70;;
52692;SDS011;68218;51.012;-1.648;2023-06-19T08:22:49;20.40;;;19.00;;
52692;SDS011;68218;51.012;-1.648;2023-06-19T08:25:14;15.80;;;14.70;;
52692;SDS011;68218;51.012;-1.648;2023-06-19T08:27:40;17.00;;;15.57;;
52692;SDS011;68218;51.012;-1.648;2023-06-19T08:30:05;17.80;;;16.50;;
52692;SDS011;68218;51.012;-1.648;2023-06-19T08:32:31;13.07;;;12.02;;
52692;SDS011;68218;51.012;-1.648;2023-06-19T08:34:58;12.75;;;11.70;;
52692;SDS011;68218;51.012;-1.648;2023-06-19T08:37:23;13.00;;;12.00;;
52692;SDS011;68218;51.012;-1.648;2023-06-19T08:39:48;12.35;;;11.45;;
52692;SDS011;68218;51.012;-1.648;2023-06-19T08:42:14;14.80;;;13.68;;
52692;SDS011;68218;51.012;-1.648;2023-06-19T08:44:39;15.75;;;14.63;;
52692;SDS011;68218;51.012;-1.648;2023-06-19T08:47:05;18.88;;;17.58;;
52692;SDS011;68218;51.012;-1.648;2023-06-19T08:49:33;19.88;;;18.17;;
52692;SDS011;68218;51.012;-1.648;2023-06-19T08:51:59;18.08;;;16.65;;
52692;SDS011;68218;51.012;-1.648;2023-06-19T08:54:25;13.25;;;12.20;;
52692;SDS011;68218;51.012;-1.648;2023-06-19T08:56:51;15.75;;;14.38;;
52692;SDS011;68218;51.012;-1.648;2023-06-19T08:59:19;17.50;;;16.25;;
52692;SDS011;68218;51.012;-1.648;2023-06-19T09:01:51;17.80;;;16.58;;
52692;SDS011;68218;51.012;-1.648;2023-06-19T09:04:23;17.88;;;16.58;;
52692;SDS011;68218;51.012;-1.648;2023-06-19T09:07:01;20.90;;;19.38;;
52692;SDS011;68218;51.012;-1.648;2023-06-19T09:09:28;20.17;;;18.77;;
52692;SDS011;68218;51.012;-1.648;2023-06-19T09:12:00;19.80;;;18.30;;
52692;SDS011;68218;51.012;-1.648;2023-06-19T09:14:33;22.67;;;21.08;;
52692;SDS011;68218;51.012;-1.648;2023-06-19T09:17:05;21.38;;;19.77;;
52692;SDS011;68218;51.012;-1.648;2023-06-19T09:19:33;13.32;;;12.13;;
52692;SDS011;68218;51.012;-1.648;2023-06-19T09:22:05;21.42;;;19.92;;
52692;SDS011;68218;51.012;-1.648;2023-06-19T09:24:35;16.75;;;15.18;;
52692;SDS011;68218;51.012;-1.648;2023-06-19T09:27:13;19.60;;;18.20;;
52692;SDS011;68218;51.012;-1.648;2023-06-19T09:29:41;13.48;;;12.38;;
52692;SDS011;68218;51.012;-1.648;2023-06-19T09:32:14;13.93;;;12.73;;
52692;SDS011;68218;51.012;-1.648;2023-06-19T09:34:40;13.00;;;11.90;;
52692;SDS011;68218;51.012;-1.648;2023-06-19T09:37:06;13.88;;;12.82;;
52692;SDS011;68218;51.012;-1.648;2023-06-19T09:39:32;13.50;;;12.55;;
52692;SDS011;68218;51.012;-1.648;2023-06-19T09:42:01;14.77;;;13.48;;
52692;SDS011;68218;51.012;-1.648;2023-06-19T09:44:28;13.70;;;12.75;;
52692;SDS011;68218;51.012;-1.648;2023-06-19T09:46:56;13.73;;;12.73;;
52692;SDS011;68218;51.012;-1.648;2023-06-19T09:49:26;13.85;;;12.80;;
52692;SDS011;68218;51.012;-1.648;2023-06-19T09:51:55;12.90;;;12.07;;
52692;SDS011;68218;51.012;-1.648;2023-06-19T09:54:21;13.50;;;12.40;;
52692;SDS011;68218;51.012;-1.648;2023-06-19T09:56:47;13.57;;;12.57;;
52692;SDS011;68218;51.012;-1.648;2023-06-19T09:59:16;13.50;;;12.45;;
52692;SDS011;68218;51.012;-1.648;2023-06-19T10:01:44;13.55;;;12.65;;
52692;SDS011;68218;51.012;-1.648;2023-06-19T10:04:10;12.82;;;11.77;;
52692;SDS011;68218;51.012;-1.648;2023-06-19T10:06:44;12.68;;;11.68;;
52692;SDS011;68218;51.012;-1.648;2023-06-19T10:09:11;12.70;;;11.70;;
52692;SDS011;68218;51.012;-1.648;2023-06-19T10:11:50;15.70;;;14.65;;
52692;SDS011;68218;51.012;-1.648;2023-06-19T10:14:16;13.65;;;12.63;;
52692;SDS011;68218;51.012;-1.648;2023-06-19T10:16:44;13.93;;;12.82;;
52692;SDS011;68218;51.012;-1.648;2023-06-19T10:19:16;13.27;;;12.35;;
52692;SDS011;68218;51.012;-1.648;2023-06-19T10:21:46;12.65;;;11.82;;
52692;SDS011;68218;51.012;-1.648;2023-06-19T10:24:15;13.93;;;13.02;;
52692;SDS011;68218;51.012;-1.648;2023-06-19T10:26:54;13.23;;;12.32;;
52692;SDS011;68218;51.012;-1.648;2023-06-19T10:29:40;21.17;;;19.55;;
52692;SDS011;68218;51.012;-1.648;2023-06-19T10:32:06;16.05;;;14.90;;
52692;SDS011;68218;51.012;-1.648;2023-06-19T10:34:35;13.13;;;12.13;;
52692;SDS011;68218;51.012;-1.648;2023-06-19T10:37:01;13.93;;;12.82;;
52692;SDS011;68218;51.012;-1.648;2023-06-19T10:39:27;13.70;;;12.57;;
52692;SDS011;68218;51.012;-1.648;2023-06-19T10:41:52;14.75;;;13.70;;
52692;SDS011;68218;51.012;-1.648;2023-06-19T10:44:17;13.88;;;12.88;;
52692;SDS011;68218;51.012;-1.648;2023-06-19T10:46:43;14.07;;;13.02;;
52692;SDS011;68218;51.012;-1.648;2023-06-19T10:49:08;14.30;;;13.13;;
52692;SDS011;68218;51.012;-1.648;2023-06-19T10:51:40;14.73;;;13.63;;
52692;SDS011;68218;51.012;-1.648;2023-06-19T10:54:08;14.02;;;12.98;;
52692;SDS011;68218;51.012;-1.648;2023-06-19T10:56:34;14.57;;;13.48;;
52692;SDS011;68218;51.012;-1.648;2023-06-19T10:59:01;13.70;;;12.60;;
52692;SDS011;68218;51.012;-1.648;2023-06-19T11:01:32;14.18;;;13.07;;
52692;SDS011;68218;51.012;-1.648;2023-06-19T11:03:57;13.38;;;12.35;;
52692;SDS011;68218;51.012;-1.648;2023-06-19T11:06:24;14.38;;;13.23;;
52692;SDS011;68218;51.012;-1.648;2023-06-19T11:08:52;13.07;;;12.15;;
52692;SDS011;68218;51.012;-1.648;2023-06-19T11:11:18;17.52;;;16.25;;
52692;SDS011;68218;51.012;-1.648;2023-06-19T11:13:45;22.20;;;20.70;;
52692;SDS011;68218;51.012;-1.648;2023-06-19T11:16:10;14.07;;;12.98;;
52692;SDS011;68218;51.012;-1.648;2023-06-19T11:18:36;13.88;;;12.88;;
52692;SDS011;68218;51.012;-1.648;2023-06-19T11:21:01;14.77;;;13.73;;
52692;SDS011;68218;51.012;-1.648;2023-06-19T11:23:28;17.63;;;16.23;;
52692;SDS011;68218;51.012;-1.648;2023-06-19T11:26:01;16.13;;;15.02;;
52692;SDS011;68218;51.012;-1.648;2023-06-19T11:28:28;21.88;;;20.25;;
52692;SDS011;68218;51.012;-1.648;2023-06-19T11:31:01;23.38;;;21.73;;
52692;SDS011;68218;51.012;-1.648;2023-06-19T11:33:30;21.83;;;20.23;;
52692;SDS011;68218;51.012;-1.648;2023-06-19T11:36:01;22.98;;;21.45;;
52692;SDS011;68218;51.012;-1.648;2023-06-19T11:38:27;17.70;;;16.30;;
52692;SDS011;68218;51.012;-1.648;2023-06-19T11:40:56;13.98;;;12.98;;
52692;SDS011;68218;51.012;-1.648;2023-06-19T11:43:25;14.48;;;13.07;;
52692;SDS011;68218;51.012;-1.648;2023-06-19T11:45:52;14.05;;;13.05;;
52692;SDS011;68218;51.012;-1.648;2023-06-19T11:48:24;21.58;;;19.90;;
52692;SDS011;68218;51.012;-1.648;2023-06-19T11:50:50;21.55;;;20.05;;
52692;SDS011;68218;51.012;-1.648;2023-06-19T11:53:17;21.63;;;20.02;;
52692;SDS011;68218;51.012;-1.648;2023-06-19T11:55:43;21.67;;;20.13;;
52692;SDS011;68218;51.012;-1.648;2023-06-19T11:58:09;22.63;;;20.98;;
52692;SDS011;68218;51.012;-1.648;2023-06-19T12:00:35;21.92;;;20.42;;
52692;SDS011;68218;51.012;-1.648;2023-06-19T12:03:01;22.08;;;20.58;;
52692;SDS011;68218;51.012;-1.648;2023-06-19T12:05:27;13.20;;;12.10;;
52692;SDS011;68218;51.012;-1.648;2023-06-19T12:07:52;14.52;;;13.38;;
52692;SDS011;68218;51.012;-1.648;2023-06-19T12:10:17;13.77;;;12.77;;
52692;SDS011;68218;51.012;-1.648;2023-06-19T12:12:43;15.77;;;14.48;;
52692;SDS011;68218;51.012;-1.648;2023-06-19T12:15:08;15.70;;;14.48;;
52692;SDS011;68218;51.012;-1.648;2023-06-19T12:17:34;13.65;;;12.65;;
52692;SDS011;68218;51.012;-1.648;2023-06-19T12:20:00;14.13;;;13.13;;
52692;SDS011;68218;51.012;-1.648;2023-06-19T12:22:26;13.48;;;12.57;;
52692;SDS011;68218;51.012;-1.648;2023-06-19T12:24:51;13.63;;;12.63;;
52692;SDS011;68218;51.012;-1.648;2023-06-19T12:27:17;13.63;;;12.70;;
52692;SDS011;68218;51.012;-1.648;2023-06-19T12:29:42;14.55;;;13.45;;
52692;SDS011;68218;51.012;-1.648;2023-06-19T12:32:07;15.15;;;13.88;;
52692;SDS011;68218;51.012;-1.648;2023-06-19T12:34:33;15.60;;;14.38;;
52692;SDS011;68218;51.012;-1.648;2023-06-19T12:36:58;14.45;;;13.20;;
52692;SDS011;68218;51.012;-1.648;2023-06-19T12:39:24;14.38;;;13.38;;
52692;SDS011;68218;51.012;-1.648;2023-06-19T12:41:49;13.07;;;12.18;;
52692;SDS011;68218;51.012;-1.648;2023-06-19T12:44:15;13.00;;;12.05;;
52692;SDS011;68218;51.012;-1.648;2023-06-19T12:46:41;14.05;;;12.95;;
52692;SDS011;68218;51.012;-1.648;2023-06-19T12:49:07;14.48;;;13.40;;
52692;SDS011;68218;51.012;-1.648;2023-06-19T12:51:33;12.90;;;12.00;;
52692;SDS011;68218;51.012;-1.648;2023-06-19T12:53:59;14.35;;;13.18;;
52692;SDS011;68218;51.012;-1.648;2023-06-19T12:56:24;14.35;;;13.15;;
52692;SDS011;68218;51.012;-1.648;2023-06-19T12:58:49;13.82;;;12.73;;
52692;SDS011;68218;51.012;-1.648;2023-06-19T13:01:15;13.88;;;12.98;;
52692;SDS011;68218;51.012;-1.648;2023-06-19T13:03:40;13.88;;;12.88;;
52692;SDS011;68218;51.012;-1.648;2023-06-19T13:06:06;14.95;;;13.85;;
52692;SDS011;68218;51.012;-1.648;2023-06-19T13:08:31;14.43;;;13.02;;
52692;SDS011;68218;51.012;-1.648;2023-06-19T13:10:56;14.13;;;13.15;;
52692;SDS011;68218;51.012;-1.648;2023-06-19T13:13:22;13.45;;;12.55;;
52692;SDS011;68218;51.012;-1.648;2023-06-19T13:15:47;13.85;;;12.80;;
52692;SDS011;68218;51.012;-1.648;2023-06-19T13:18:12;13.75;;;12.50;;
52692;SDS011;68218;51.012;-1.648;2023-06-19T13:20:38;14.20;;;13.18;;
52692;SDS011;68218;51.012;-1.648;2023-06-19T13:23:03;14.27;;;13.07;;
52692;SDS011;68218;51.012;-1.648;2023-06-19T13:25:29;15.15;;;13.95;;
52692;SDS011;68218;51.012;-1.648;2023-06-19T13:27:54;15.13;;;14.02;;
52692;SDS011;68218;51.012;-1.648;2023-06-19T13:30:19;16.17;;;15.00;;
52692;SDS011;68218;51.012;-1.648;2023-06-19T13:32:45;16.02;;;14.77;;
52692;SDS011;68218;51.012;-1.648;2023-06-19T13:35:10;13.88;;;12.88;;
52692;SDS011;68218;51.012;-1.648;2023-06-19T13:37:36;18.58;;;17.27;;
52692;SDS011;68218;51.012;-1.648;2023-06-19T13:40:04;14.70;;;13.70;;
52692;SDS011;68218;51.012;-1.648;2023-06-19T13:42:30;14.88;;;13.70;;
52692;SDS011;68218;51.012;-1.648;2023-06-19T13:44:55;14.27;;;13.18;;
52692;SDS011;68218;51.012;-1.648;2023-06-19T13:47:21;13.93;;;12.82;;
52692;SDS011;68218;51.012;-1.648;2023-06-19T13:49:50;12.57;;;11.68;;
52692;SDS011;68218;51.012;-1.648;2023-06-19T13:52:16;14.90;;;13.75;;
52692;SDS011;68218;51.012;-1.648;2023-06-19T13:54:41;12.52;;;11.57;;
52692;SDS011;68218;51.012;-1.648;2023-06-19T13:57:06;15.63;;;14.43;;
52692;SDS011;68218;51.012;-1.648;2023-06-19T13:59:32;12.88;;;11.98;;
52692;SDS011;68218;51.012;-1.648;2023-06-19T14:01:57;14.15;;;13.00;;
52692;SDS011;68218;51.012;-1.648;2023-06-19T14:04:22;15.15;;;13.80;;
52692;SDS011;68218;51.012;-1.648;2023-06-19T14:06:48;14.10;;;12.82;;